Time;durP1;ratioP1;P1;durP2;ratioP2;P2;SDS_P1;SDS_P2;PMS_P1;PMS_P2;Temp;Humidity;BMP_temperature;BMP_pressure;BME280_temperature;BME280_humidity;BME280_pressure;Samples;Min_cycle;Max_cycle;Signal;HPM_P1;HPM_P2
2023/03/17 00:01:08;;;;;;;3.50;2.00;;;;;5.80;93697.00;;;;7397498;19;20647;-76
2023/03/17 00:03:44;;;;;;;3.40;2.07;;;;;6.00;93696.00;;;;7397632;19;20584;-75
2023/03/17 00:06:26;;;;;;;3.03;1.73;;;;;6.30;93684.00;;;;7399685;19;20204;-76
2023/03/17 00:09:13;;;;;;;2.60;1.73;;;;;6.50;93685.00;;;;7392512;19;20140;-75
2023/03/17 00:11:47;;;;;;;3.37;2.07;;;;;6.60;93679.00;;;;7397855;19;20154;-75
2023/03/17 00:14:21;;;;;;;3.40;1.80;;;;;6.70;93675.00;;;;7400490;19;20128;-75
2023/03/17 00:16:51;;;;;;;3.17;1.97;;;;;6.90;93676.00;;;;7398482;19;20288;-76
2023/03/17 00:19:36;;;;;;;2.00;1.80;;;;;6.90;93690.00;;;;7397625;19;20132;-75
2023/03/17 00:22:12;;;;;;;2.47;1.90;;;;;7.00;93677.00;;;;7399052;19;20133;-75
2023/03/17 00:24:46;;;;;;;4.13;1.97;;;;;7.10;93681.00;;;;7398765;19;20616;-75
2023/03/17 00:27:14;;;;;;;2.73;1.83;;;;;7.10;93682.00;;;;7400106;19;20121;-76
2023/03/17 00:29:48;;;;;;;3.30;1.90;;;;;7.10;93682.00;;;;7399618;19;20610;-76
2023/03/17 00:32:20;;;;;;;2.47;1.87;;;;;7.10;93679.00;;;;7399207;19;20298;-76
2023/03/17 00:34:54;;;;;;;4.27;2.13;;;;;7.00;93685.00;;;;7398058;19;20500;-76
2023/03/17 00:37:21;;;;;;;5.17;2.07;;;;;7.10;93686.00;;;;7399834;19;20129;-77
2023/03/17 00:39:57;;;;;;;2.63;2.10;;;;;7.10;93675.00;;;;7397736;19;20140;-76
2023/03/17 00:42:31;;;;;;;3.40;2.00;;;;;7.10;93666.00;;;;7398031;19;20137;-75
2023/03/17 00:45:05;;;;;;;3.07;2.10;;;;;7.20;93667.00;;;;7392582;19;20164;-74
2023/03/17 00:47:33;;;;;;;3.00;2.40;;;;;7.40;93672.00;;;;7386067;19;20136;-76
2023/03/17 00:50:14;;;;;;;3.13;2.17;;;;;7.40;93664.00;;;;7398437;19;20153;-75
2023/03/17 00:52:43;;;;;;;3.93;2.30;;;;;7.30;93669.00;;;;7398579;19;20152;-74
2023/03/17 00:55:19;;;;;;;2.90;2.23;;;;;7.10;93656.00;;;;7398241;19;20137;-76
2023/03/17 00:57:47;;;;;;;2.47;1.93;;;;;7.20;93660.00;;;;7396649;19;20619;-76
2023/03/17 01:00:28;;;;;;;2.90;2.27;;;;;7.40;93657.00;;;;7397014;19;20161;-76
2023/03/17 01:03:02;;;;;;;2.83;2.10;;;;;7.40;93652.00;;;;7398062;19;20195;-76
2023/03/17 01:05:30;;;;;;;3.47;2.60;;;;;7.40;93653.00;;;;7397230;19;20580;-75
2023/03/17 01:08:10;;;;;;;2.90;2.50;;;;;7.40;93650.00;;;;7398217;19;20143;-76
2023/03/17 01:10:38;;;;;;;3.03;2.37;;;;;7.40;93647.00;;;;7396852;19;20164;-76
2023/03/17 01:13:13;;;;;;;2.97;2.20;;;;;7.50;93648.00;;;;7398197;19;20132;-76
2023/03/17 01:15:46;;;;;;;2.90;2.40;;;;;7.40;93639.00;;;;7396575;19;20149;-74
2023/03/17 01:18:21;;;;;;;2.73;2.20;;;;;7.50;93632.00;;;;7396627;19;20632;-76
2023/03/17 01:20:51;;;;;;;3.00;2.70;;;;;7.50;93633.00;;;;7396600;19;20613;-76
2023/03/17 01:23:20;;;;;;;3.80;2.60;;;;;7.40;93631.00;;;;7393915;19;20250;-77
2023/03/17 01:25:55;;;;;;;3.00;2.33;;;;;7.40;93628.00;;;;7396853;19;20144;-75
2023/03/17 01:28:28;;;;;;;3.83;2.77;;;;;7.50;93625.00;;;;7396823;19;20148;-75
2023/03/17 01:31:03;;;;;;;3.07;2.50;;;;;7.60;93623.00;;;;7396244;19;20141;-76
2023/03/17 01:33:33;;;;;;;3.37;2.53;;;;;7.40;93624.00;;;;7401532;19;20156;-75
2023/03/17 01:36:09;;;;;;;3.43;2.90;;;;;7.50;93624.00;;;;7403240;19;20121;-75
2023/03/17 01:38:37;;;;;;;4.90;2.37;;;;;7.50;93621.00;;;;7405418;19;20498;-74
2023/03/17 01:41:11;;;;;;;5.93;2.70;;;;;7.50;93619.00;;;;7405995;19;20132;-75
2023/03/17 01:43:44;;;;;;;5.30;3.00;;;;;7.70;93611.00;;;;7402162;19;20156;-76
2023/03/17 01:46:24;;;;;;;5.83;2.50;;;;;7.60;93608.00;;;;7405175;19;20165;-76
2023/03/17 01:49:24;;;;;;;2.87;2.57;;;;;7.50;93608.00;;;;7403096;19;20163;-76
2023/03/17 01:52:14;;;;;;;3.00;2.60;;;;;7.40;93607.00;;;;7401478;19;20490;-74
2023/03/17 01:55:02;;;;;;;3.03;2.50;;;;;7.30;93604.00;;;;7403571;19;20143;-76
2023/03/17 01:57:52;;;;;;;3.23;2.53;;;;;7.50;93605.00;;;;7405114;19;20129;-76
2023/03/17 02:00:33;;;;;;;4.37;2.77;;;;;7.50;93592.00;;;;7404151;19;20155;-75
2023/03/17 02:03:01;;;;;;;5.23;2.50;;;;;7.50;93596.00;;;;7395058;19;20192;-80
2023/03/17 02:05:37;;;;;;;5.47;2.57;;;;;7.50;93591.00;;;;7401167;19;20125;-80
2023/03/17 02:08:15;;;;;;;3.63;2.70;;;;;7.50;93594.00;;;;7400676;19;20583;-80
2023/03/17 02:10:44;;;;;;;4.20;2.33;;;;;7.70;93597.00;;;;7400593;19;20477;-80
2023/03/17 02:13:18;;;;;;;3.43;2.10;;;;;7.60;93594.00;;;;7399757;19;20144;-80
2023/03/17 02:15:48;;;;;;;2.73;2.00;;;;;7.60;93596.00;;;;7400586;19;20587;-80
2023/03/17 02:18:22;;;;;;;3.33;2.30;;;;;7.60;93593.00;;;;7400644;19;20503;-82
2023/03/17 02:21:32;;;;;;;3.37;2.07;;;;;7.70;93604.00;;;;7400119;19;20125;-80
2023/03/17 02:24:19;;;;;;;2.43;1.90;;;;;7.80;93598.00;;;;7398986;19;20128;-80
2023/03/17 02:26:57;;;;;;;2.73;2.23;;;;;7.90;93594.00;;;;7396124;19;20192;-73
2023/03/17 02:29:40;;;;;;;2.23;1.60;;;;;7.80;93597.00;;;;7402222;19;20157;-73
2023/03/17 02:32:08;;;;;;;2.27;1.90;;;;;7.90;93600.00;;;;7403826;19;20132;-73
2023/03/17 02:34:43;;;;;;;3.90;2.47;;;;;7.90;93596.00;;;;7402861;19;20148;-73
2023/03/17 02:37:18;;;;;;;4.47;2.30;;;;;7.80;93599.00;;;;7403624;19;20635;-73
2023/03/17 02:39:46;;;;;;;2.27;1.97;;;;;7.70;93601.00;;;;7404376;19;20128;-73
2023/03/17 02:42:13;;;;;;;3.67;2.00;;;;;7.70;93588.00;;;;7401943;19;20152;-73
2023/03/17 02:44:48;;;;;;;4.37;1.97;;;;;7.70;93591.00;;;;7400880;19;20869;-73
2023/03/17 02:47:22;;;;;;;2.60;1.83;;;;;7.60;93593.00;;;;7401840;19;20136;-73
2023/03/17 02:49:58;;;;;;;2.13;1.73;;;;;7.60;93593.00;;;;7402022;19;20200;-73
2023/03/17 02:52:36;;;;;;;2.40;1.77;;;;;7.70;93593.00;;;;7401451;19;20153;-74
2023/03/17 02:55:11;;;;;;;2.07;1.60;;;;;7.80;93583.00;;;;7399723;19;20152;-73
2023/03/17 02:57:48;;;;;;;2.97;1.70;;;;;7.80;93587.00;;;;7403169;19;20442;-73
2023/03/17 03:00:21;;;;;;;2.50;1.57;;;;;8.00;93584.00;;;;7402042;19;20156;-74
2023/03/17 03:02:56;;;;;;;1.70;1.60;;;;;8.00;93577.00;;;;7400102;19;20163;-74
2023/03/17 03:05:30;;;;;;;2.47;1.80;;;;;8.10;93576.00;;;;7401423;19;20133;-74
2023/03/17 03:07:57;;;;;;;2.23;1.60;;;;;8.10;93582.00;;;;7401038;19;20133;-74
2023/03/17 03:10:31;;;;;;;4.60;1.70;;;;;8.00;93576.00;;;;7402573;19;20155;-74
2023/03/17 03:13:00;;;;;;;1.73;1.37;;;;;8.10;93582.00;;;;7401198;19;20634;-73
2023/03/17 03:15:34;;;;;;;2.73;1.50;;;;;8.10;93583.00;;;;7400376;19;20143;-73
2023/03/17 03:18:11;;;;;;;1.57;1.40;;;;;8.20;93583.00;;;;7402674;19;20152;-73
2023/03/17 03:20:46;;;;;;;1.87;1.53;;;;;8.20;93583.00;;;;7399299;19;20121;-73
2023/03/17 03:23:15;;;;;;;2.77;1.73;;;;;8.20;93588.00;;;;7402363;19;20121;-73
2023/03/17 03:25:48;;;;;;;2.30;1.53;;;;;8.10;93582.00;;;;7400767;19;20136;-73
2023/03/17 03:28:22;;;;;;;2.30;1.63;;;;;8.20;93588.00;;;;7398621;19;20517;-73
2023/03/17 03:30:56;;;;;;;3.60;1.53;;;;;7.90;93576.00;;;;7399485;19;20699;-73
2023/03/17 03:33:25;;;;;;;2.93;1.60;;;;;7.90;93573.00;;;;7401661;19;20125;-73
2023/03/17 03:36:00;;;;;;;2.90;1.60;;;;;8.00;93579.00;;;;7399801;19;20160;-73
2023/03/17 03:38:28;;;;;;;2.00;1.60;;;;;8.00;93577.00;;;;7402163;19;20140;-73
2023/03/17 03:41:02;;;;;;;2.50;1.73;;;;;8.00;93580.00;;;;7400289;19;20132;-74
2023/03/17 03:43:36;;;;;;;2.37;1.60;;;;;7.80;93577.00;;;;7400758;19;20121;-74
2023/03/17 03:46:10;;;;;;;2.57;1.60;;;;;7.90;93574.00;;;;7399970;19;20614;-74
2023/03/17 03:48:44;;;;;;;2.10;1.60;;;;;7.90;93568.00;;;;7399926;19;20211;-74
2023/03/17 03:51:12;;;;;;;3.47;2.00;;;;;7.90;93572.00;;;;7400854;19;20153;-74
2023/03/17 03:53:49;;;;;;;2.00;1.80;;;;;8.00;93578.00;;;;7399932;19;20141;-74
2023/03/17 03:56:23;;;;;;;2.17;1.83;;;;;7.90;93580.00;;;;7399592;19;20133;-73
2023/03/17 03:59:04;;;;;;;3.00;2.00;;;;;7.90;93582.00;;;;7400843;19;20128;-73
2023/03/17 04:01:32;;;;;;;1.97;1.77;;;;;7.80;93587.00;;;;7400408;19;20116;-74
2023/03/17 04:04:06;;;;;;;2.13;1.93;;;;;7.80;93583.00;;;;7398569;19;20219;-74
2023/03/17 04:06:34;;;;;;;3.23;2.10;;;;;7.80;93572.00;;;;7399969;19;20591;-74
2023/03/17 04:09:09;;;;;;;3.50;2.40;;;;;7.80;93583.00;;;;7399484;19;20149;-74
2023/03/17 04:11:36;;;;;;;3.00;2.40;;;;;7.70;93582.00;;;;7398716;19;20128;-74
2023/03/17 04:14:10;;;;;;;3.00;2.20;;;;;7.60;93572.00;;;;7398901;19;20140;-74
2023/03/17 04:16:40;;;;;;;2.90;2.27;;;;;7.50;93576.00;;;;7399002;19;20503;-74
2023/03/17 04:19:14;;;;;;;2.60;2.10;;;;;7.40;93586.00;;;;7398542;19;20129;-74
2023/03/17 04:21:42;;;;;;;5.00;2.37;;;;;7.50;93578.00;;;;7396200;19;20136;-74
2023/03/17 04:24:15;;;;;;;2.87;2.03;;;;;7.40;93576.00;;;;7398788;19;20195;-74
2023/03/17 04:26:52;;;;;;;2.73;2.07;;;;;7.40;93577.00;;;;7398052;19;20176;-74
2023/03/17 04:29:33;;;;;;;2.67;2.10;;;;;7.40;93582.00;;;;7399695;19;20137;-74
2023/03/17 04:32:02;;;;;;;2.83;2.37;;;;;7.40;93581.00;;;;7398702;19;20148;-75
2023/03/17 04:34:36;;;;;;;2.73;2.23;;;;;7.20;93569.00;;;;7399260;19;20128;-74
2023/03/17 04:37:11;;;;;;;3.70;2.53;;;;;7.30;93572.00;;;;7398390;19;20152;-74
2023/03/17 04:39:39;;;;;;;4.20;2.67;;;;;7.30;93580.00;;;;7398851;19;20129;-74
2023/03/17 04:42:14;;;;;;;3.13;2.47;;;;;7.30;93569.00;;;;7398862;19;20129;-74
2023/03/17 04:44:49;;;;;;;2.83;2.50;;;;;7.30;93575.00;;;;7398351;19;20491;-74
2023/03/17 04:47:27;;;;;;;3.93;2.47;;;;;7.30;93581.00;;;;7397873;19;20507;-74
2023/03/17 04:50:00;;;;;;;4.03;2.50;;;;;7.20;93569.00;;;;7397405;19;20498;-74
2023/03/17 04:52:28;;;;;;;3.50;2.50;;;;;7.10;93562.00;;;;7397232;19;20133;-74
2023/03/17 04:55:04;;;;;;;5.43;2.80;;;;;7.10;93553.00;;;;7398057;19;20606;-74
2023/03/17 04:57:32;;;;;;;4.50;2.60;;;;;7.10;93555.00;;;;7399419;19;20623;-74
2023/03/17 05:00:08;;;;;;;4.37;2.17;;;;;7.30;93551.00;;;;7397068;19;20518;-74
2023/03/17 05:02:43;;;;;;;4.03;2.50;;;;;7.20;93557.00;;;;7396141;19;20148;-74
2023/03/17 05:05:17;;;;;;;4.13;2.27;;;;;7.20;93562.00;;;;7397195;19;20129;-74
2023/03/17 05:07:45;;;;;;;2.70;2.00;;;;;7.30;93565.00;;;;7396078;19;20707;-74
2023/03/17 05:10:19;;;;;;;2.90;2.20;;;;;7.30;93571.00;;;;7398481;19;20132;-74
2023/03/17 05:12:47;;;;;;;4.47;2.37;;;;;7.30;93567.00;;;;7397426;19;20563;-74
2023/03/17 05:15:21;;;;;;;2.27;1.77;;;;;7.30;93567.00;;;;7398157;19;20144;-74
2023/03/17 05:17:56;;;;;;;4.30;2.00;;;;;7.10;93576.00;;;;7398651;19;20613;-74
2023/03/17 05:20:31;;;;;;;2.77;1.80;;;;;7.10;93568.00;;;;7398002;19;20589;-74
2023/03/17 05:22:59;;;;;;;2.50;1.83;;;;;7.10;93570.00;;;;7395616;19;20161;-74
2023/03/17 05:25:32;;;;;;;2.13;1.50;;;;;7.30;93567.00;;;;7398024;19;20133;-74
2023/03/17 05:28:13;;;;;;;2.13;1.67;;;;;7.20;93557.00;;;;7396912;19;20155;-74
2023/03/17 05:30:48;;;;;;;2.20;1.57;;;;;7.20;93558.00;;;;7398052;19;20595;-73
2023/03/17 05:33:16;;;;;;;2.43;1.70;;;;;7.10;93561.00;;;;7397153;19;20608;-74
2023/03/17 05:35:51;;;;;;;3.00;1.63;;;;;7.00;93554.00;;;;7396987;19;20172;-74
2023/03/17 05:38:24;;;;;;;1.20;1.10;;;;;7.00;93566.00;;;;7398270;19;20606;-74
2023/03/17 05:40:58;;;;;;;3.20;1.20;;;;;7.10;93557.00;;;;7396396;19;20133;-74
2023/03/17 05:43:32;;;;;;;2.70;1.23;;;;;7.10;93555.00;;;;7397838;19;20121;-75
2023/03/17 05:46:00;;;;;;;2.40;1.00;;;;;7.20;93566.00;;;;7392124;19;20129;-74
2023/03/17 05:48:34;;;;;;;1.20;1.10;;;;;7.80;93565.00;;;;7396852;19;20121;-75
2023/03/17 05:51:09;;;;;;;1.37;1.13;;;;;8.00;93567.00;;;;7397195;19;20121;-74
2023/03/17 05:53:37;;;;;;;0.90;0.80;;;;;8.20;93568.00;;;;7396498;19;20140;-74
2023/03/17 05:56:11;;;;;;;1.10;1.00;;;;;8.20;93570.00;;;;7397799;19;20576;-75
2023/03/17 05:58:45;;;;;;;2.37;1.20;;;;;8.40;93576.00;;;;7395978;19;20148;-75
2023/03/17 06:01:21;;;;;;;0.80;0.80;;;;;8.30;93577.00;;;;7395385;19;20617;-74
2023/03/17 06:03:54;;;;;;;1.23;1.00;;;;;8.20;93571.00;;;;7395884;19;20137;-74
2023/03/17 06:06:28;;;;;;;1.97;1.00;;;;;8.10;93573.00;;;;7396705;19;20140;-75
2023/03/17 06:09:02;;;;;;;0.90;0.67;;;;;8.10;93572.00;;;;7396063;19;20137;-75
2023/03/17 06:11:30;;;;;;;1.07;0.80;;;;;8.30;93575.00;;;;7395619;19;20139;-74
2023/03/17 06:14:07;;;;;;;1.57;0.77;;;;;8.60;93565.00;;;;7392483;19;20136;-74
2023/03/17 06:16:44;;;;;;;1.00;0.80;;;;;8.80;93570.00;;;;7394365;19;20135;-74
2023/03/17 06:19:11;;;;;;;2.40;0.70;;;;;8.70;93561.00;;;;7399134;19;20133;-74
2023/03/17 06:21:47;;;;;;;1.57;0.90;;;;;8.90;93560.00;;;;7399525;19;20156;-74
2023/03/17 06:24:15;;;;;;;0.70;0.57;;;;;9.00;93561.00;;;;7402440;19;20151;-74
2023/03/17 06:26:56;;;;;;;0.80;0.80;;;;;9.20;93557.00;;;;7402101;19;20272;-75
2023/03/17 06:29:24;;;;;;;1.42;0.70;;;;;9.50;93557.00;;;;7402369;19;20131;-75
2023/03/17 06:31:58;;;;;;;1.27;0.90;;;;;9.70;93546.00;;;;7403930;19;20136;-75
2023/03/17 06:34:47;;;;;;;0.70;0.68;;;;;10.00;93556.00;;;;7404103;19;20188;-75
2023/03/17 06:37:23;;;;;;;0.70;0.70;;;;;10.30;93547.00;;;;7402178;19;20124;-76
2023/03/17 06:39:59;;;;;;;2.05;0.60;;;;;10.40;93550.00;;;;7390186;19;20619;-75
2023/03/17 06:42:27;;;;;;;1.20;0.77;;;;;10.60;93556.00;;;;7401125;19;20144;-75
2023/03/17 06:45:02;;;;;;;1.42;0.63;;;;;11.00;93557.00;;;;7400520;19;20634;-75
2023/03/17 06:47:30;;;;;;;1.27;0.70;;;;;11.30;93556.00;;;;7402251;19;20476;-75
2023/03/17 06:50:11;;;;;;;1.15;0.68;;;;;11.30;93555.00;;;;7402976;19;20133;-75
2023/03/17 06:52:39;;;;;;;1.10;0.63;;;;;11.50;93568.00;;;;7402404;19;20161;-75
2023/03/17 06:55:14;;;;;;;1.65;0.70;;;;;11.50;93568.00;;;;7402269;19;20148;-75
2023/03/17 06:57:48;;;;;;;1.92;0.70;;;;;11.50;93563.00;;;;7402204;19;20130;-75
2023/03/17 07:00:19;;;;;;;0.93;0.80;;;;;11.60;93560.00;;;;7402516;19;20656;-76
2023/03/17 07:02:55;;;;;;;4.65;0.73;;;;;11.70;93556.00;;;;7401807;19;20595;-77
2023/03/17 07:05:24;;;;;;;0.50;0.50;;;;;11.40;93567.00;;;;7401654;19;20200;-76
2023/03/17 07:07:59;;;;;;;0.85;0.70;;;;;11.00;93585.00;;;;7403243;19;20148;-76
2023/03/17 07:10:35;;;;;;;1.25;0.60;;;;;11.10;93577.00;;;;7404234;19;20136;-76
2023/03/17 07:13:11;;;;;;;1.48;0.70;;;;;11.40;93576.00;;;;7404913;19;20156;-77
2023/03/17 07:15:39;;;;;;;0.70;0.63;;;;;11.60;93575.00;;;;7404777;19;20132;-76
2023/03/17 07:18:15;;;;;;;1.30;0.70;;;;;11.70;93571.00;;;;7402242;19;20148;-75
2023/03/17 07:20:55;;;;;;;0.50;0.50;;;;;11.70;93578.00;;;;7400428;19;20152;-75
2023/03/17 07:23:30;;;;;;;0.47;0.47;;;;;11.70;93588.00;;;;7401350;19;20136;-75
2023/03/17 07:25:58;;;;;;;1.52;0.80;;;;;11.70;93584.00;;;;7399371;19;20156;-75
2023/03/17 07:28:26;;;;;;;1.83;0.95;;;;;11.80;93582.00;;;;7399326;19;20169;-76
2023/03/17 07:31:01;;;;;;;2.05;0.70;;;;;11.60;93572.00;;;;7397358;19;20156;-75
2023/03/17 07:33:32;;;;;;;1.00;0.90;;;;;12.10;93574.00;;;;7398225;19;20143;-75
2023/03/17 07:36:00;;;;;;;0.77;0.65;;;;;12.60;93577.00;;;;7397805;19;20603;-75
2023/03/17 07:38:35;;;;;;;0.63;0.60;;;;;13.00;93573.00;;;;7402508;19;20194;-74
2023/03/17 07:41:10;;;;;;;2.10;0.75;;;;;13.10;93570.00;;;;7398841;19;20646;-73
2023/03/17 07:43:37;;;;;;;0.80;0.60;;;;;13.50;93587.00;;;;7399886;19;20141;-73
2023/03/17 07:46:12;;;;;;;1.17;0.75;;;;;13.90;93586.00;;;;7399118;19;20196;-73
2023/03/17 07:48:42;;;;;;;0.70;0.68;;;;;14.30;93585.00;;;;7400016;19;20196;-73
2023/03/17 07:51:20;;;;;;;1.00;0.70;;;;;14.60;93587.00;;;;7399658;19;20496;-73
2023/03/17 07:53:51;;;;;;;2.05;0.70;;;;;15.00;93587.00;;;;7398031;19;20137;-73
2023/03/17 07:56:25;;;;;;;1.67;0.90;;;;;15.50;93588.00;;;;7397656;19;20163;-74
2023/03/17 07:58:53;;;;;;;2.33;0.80;;;;;15.90;93578.00;;;;7399910;19;20121;-73
2023/03/17 08:01:29;;;;;;;2.80;0.60;;;;;15.70;93575.00;;;;7399739;19;20154;-73
2023/03/17 08:03:58;;;;;;;2.05;0.70;;;;;15.40;93575.00;;;;7399364;19;20164;-74
2023/03/17 08:06:33;;;;;;;2.05;0.75;;;;;15.40;93576.00;;;;7399332;19;20147;-73
2023/03/17 08:09:09;;;;;;;3.20;1.10;;;;;15.90;93575.00;;;;7400237;19;20144;-74
2023/03/17 08:11:43;;;;;;;0.68;0.60;;;;;15.80;93573.00;;;;7399775;19;20132;-73
2023/03/17 08:14:17;;;;;;;0.55;0.55;;;;;15.60;93581.00;;;;7399529;19;20172;-73
2023/03/17 08:16:46;;;;;;;1.70;1.00;;;;;16.10;93570.00;;;;7399614;19;20153;-74
2023/03/17 08:19:21;;;;;;;0.70;0.70;;;;;16.10;93570.00;;;;7398878;19;20136;-74
2023/03/17 08:21:50;;;;;;;0.75;0.70;;;;;16.40;93566.00;;;;7397629;19;20137;-73
2023/03/17 08:24:26;;;;;;;0.70;0.70;;;;;16.80;93564.00;;;;7399698;19;20125;-73
2023/03/17 08:27:01;;;;;;;2.25;0.85;;;;;17.10;93563.00;;;;7395331;19;20144;-72
2023/03/17 08:29:42;;;;;;;2.90;0.65;;;;;17.40;93567.00;;;;7398953;19;20158;-73
2023/03/17 08:32:12;;;;;;;1.10;0.80;;;;;17.90;93561.00;;;;7400233;19;20120;-73
2023/03/17 08:34:51;;;;;;;1.08;0.70;;;;;18.10;93561.00;;;;7397996;19;20188;-73
2023/03/17 08:37:26;;;;;;;1.73;1.02;;;;;17.70;93573.00;;;;7398097;19;20135;-73
2023/03/17 08:39:54;;;;;;;1.20;0.88;;;;;18.20;93568.00;;;;7394333;19;20204;-73
2023/03/17 08:42:29;;;;;;;1.27;1.00;;;;;18.80;93577.00;;;;7395200;19;20136;-73
2023/03/17 08:44:57;;;;;;;2.22;0.90;;;;;18.00;93576.00;;;;7396543;19;20132;-73
2023/03/17 08:47:31;;;;;;;1.20;0.90;;;;;17.90;93566.00;;;;7394972;19;20140;-73
2023/03/17 08:49:59;;;;;;;0.70;0.70;;;;;17.80;93565.00;;;;7398238;19;20139;-73
2023/03/17 08:52:29;;;;;;;1.23;0.90;;;;;19.00;93572.00;;;;7398823;19;20147;-73
2023/03/17 08:55:05;;;;;;;0.95;0.80;;;;;19.40;93562.00;;;;7398784;19;20206;-73
2023/03/17 08:57:34;;;;;;;0.70;0.70;;;;;19.30;93562.00;;;;7397848;19;20635;-73
2023/03/17 09:00:10;;;;;;;1.52;0.95;;;;;19.70;93551.00;;;;7397842;19;20488;-73
2023/03/17 09:02:41;;;;;;;0.82;0.80;;;;;20.50;93552.00;;;;7397335;19;20185;-74
2023/03/17 09:05:16;;;;;;;1.40;0.70;;;;;20.90;93553.00;;;;7399354;19;20622;-74
2023/03/17 09:07:46;;;;;;;1.27;0.85;;;;;21.10;93570.00;;;;7396566;19;20148;-74
2023/03/17 09:10:22;;;;;;;0.88;0.80;;;;;20.20;93563.00;;;;7399803;19;20590;-73
2023/03/17 09:12:50;;;;;;;1.27;0.85;;;;;19.80;93562.00;;;;7397138;19;20135;-74
2023/03/17 09:15:27;;;;;;;1.20;0.77;;;;;19.70;93571.00;;;;7398662;19;20140;-73
2023/03/17 09:17:56;;;;;;;0.82;0.82;;;;;20.60;93558.00;;;;7396920;19;20141;-73
2023/03/17 09:20:32;;;;;;;0.90;0.57;;;;;20.20;93570.00;;;;7397016;19;20152;-74
2023/03/17 09:23:07;;;;;;;1.50;0.93;;;;;20.00;93561.00;;;;7397648;19;20132;-74
2023/03/17 09:25:37;;;;;;;1.05;0.80;;;;;20.80;93566.00;;;;7397056;19;20592;-73
2023/03/17 09:28:11;;;;;;;3.70;0.93;;;;;20.90;93561.00;;;;7396392;19;20168;-74
2023/03/17 09:30:56;;;;;;;1.02;0.70;;;;;21.80;93566.00;;;;7396941;19;20144;-74
2023/03/17 09:33:24;;;;;;;1.92;1.00;;;;;22.30;93559.00;;;;7398258;19;20133;-74
2023/03/17 09:35:59;;;;;;;1.13;0.77;;;;;22.70;93557.00;;;;7395308;19;20166;-74
2023/03/17 09:38:34;;;;;;;1.67;1.00;;;;;22.70;93557.00;;;;7397620;19;20135;-74
2023/03/17 09:41:19;;;;;;;1.40;1.10;;;;;23.70;93556.00;;;;7396817;19;20474;-74
2023/03/17 09:44:12;;;;;;;1.45;0.95;;;;;23.10;93552.00;;;;7397297;19;20147;-74
2023/03/17 09:47:01;;;;;;;2.67;1.80;;;;;23.60;93560.00;;;;7395803;19;20164;-74
2023/03/17 09:49:50;;;;;;;5.65;2.15;;;;;24.50;93564.00;;;;7397749;19;20141;-73
2023/03/17 09:52:28;;;;;;;2.00;1.80;;;;;23.80;93577.00;;;;7389085;19;20178;-74
2023/03/17 09:54:57;;;;;;;4.05;1.70;;;;;22.60;93578.00;;;;7401236;19;20184;-73
2023/03/17 09:57:37;;;;;;;4.05;1.90;;;;;22.70;93575.00;;;;7403006;19;20208;-74
2023/03/17 10:00:21;;;;;;;3.78;1.90;;;;;22.20;93578.00;;;;7403556;19;20136;-74
2023/03/17 10:02:49;;;;;;;3.67;2.10;;;;;22.00;93580.00;;;;7403514;19;20132;-73
2023/03/17 10:05:33;;;;;;;4.85;2.10;;;;;21.30;93578.00;;;;7403585;19;20632;-73
2023/03/17 10:08:11;;;;;;;2.65;1.95;;;;;21.10;93585.00;;;;7403548;19;20137;-73
2023/03/17 10:11:08;;;;;;;3.08;2.00;;;;;20.70;93585.00;;;;7403858;19;20133;-73
2023/03/17 10:14:00;;;;;;;2.00;1.80;;;;;20.50;93587.00;;;;7404116;19;20477;-74
2023/03/17 10:17:02;;;;;;;3.33;2.13;;;;;21.10;93588.00;;;;7403482;19;20146;-73
2023/03/17 10:19:56;;;;;;;4.80;2.17;;;;;20.70;93588.00;;;;7402989;19;20128;-73
2023/03/17 10:22:49;;;;;;;2.92;1.80;;;;;21.40;93580.00;;;;7401425;19;20145;-74
2023/03/17 10:25:31;;;;;;;3.78;2.20;;;;;20.70;93586.00;;;;7403437;19;20137;-73
2023/03/17 10:28:38;;;;;;;3.30;1.88;;;;;21.60;93587.00;;;;7401565;19;20157;-74
2023/03/17 10:31:18;;;;;;;3.55;1.95;;;;;21.60;93578.00;;;;7399662;19;20180;-73
2023/03/17 10:33:54;;;;;;;3.63;1.80;;;;;22.40;93576.00;;;;7401866;19;20205;-74
2023/03/17 10:36:37;;;;;;;3.05;1.85;;;;;22.70;93567.00;;;;7399261;19;20459;-74
2023/03/17 10:39:17;;;;;;;4.85;1.70;;;;;22.90;93565.00;;;;7401240;19;20664;-74
2023/03/17 10:41:56;;;;;;;2.25;1.70;;;;;22.40;93574.00;;;;7398711;19;20148;-74
2023/03/17 10:44:58;;;;;;;5.13;2.25;;;;;21.60;93577.00;;;;7402939;19;20152;-74
2023/03/17 10:47:38;;;;;;;2.65;1.73;;;;;21.70;93574.00;;;;7399862;19;20146;-74
2023/03/17 10:50:25;;;;;;;2.10;1.50;;;;;22.40;93569.00;;;;7402916;19;20148;-74
2023/03/17 10:52:59;;;;;;;1.70;1.55;;;;;22.10;93566.00;;;;7402865;19;20200;-73
2023/03/17 10:55:36;;;;;;;1.70;1.42;;;;;21.90;93570.00;;;;7405134;19;20128;-74
2023/03/17 10:58:27;;;;;;;2.47;1.40;;;;;21.40;93557.00;;;;7400004;19;20224;-74
2023/03/17 11:01:07;;;;;;;3.17;1.98;;;;;21.50;93564.00;;;;7401372;19;20145;-74
2023/03/17 11:03:39;;;;;;;2.22;1.42;;;;;21.20;93566.00;;;;7397468;19;20647;-73
2023/03/17 11:06:17;;;;;;;2.45;1.90;;;;;21.10;93559.00;;;;7398790;19;20145;-74
2023/03/17 11:08:54;;;;;;;2.42;1.45;;;;;21.50;93551.00;;;;7402674;19;20465;-74
2023/03/17 11:11:33;;;;;;;1.73;1.50;;;;;21.90;93549.00;;;;7402407;19;20136;-74
2023/03/17 11:14:17;;;;;;;1.92;1.30;;;;;22.20;93549.00;;;;7399957;19;20156;-73
2023/03/17 11:16:57;;;;;;;2.53;2.00;;;;;22.00;93559.00;;;;7402511;19;20461;-73
2023/03/17 11:19:53;;;;;;;1.42;1.17;;;;;21.80;93542.00;;;;7401159;19;20156;-73
2023/03/17 11:22:36;;;;;;;1.38;1.27;;;;;21.90;93547.00;;;;7398027;19;20465;-74
2023/03/17 11:25:10;;;;;;;3.35;2.10;;;;;22.40;93541.00;;;;7400890;19;20172;-73
2023/03/17 11:28:06;;;;;;;3.15;1.33;;;;;22.50;93546.00;;;;7398931;19;20204;-74
2023/03/17 11:30:47;;;;;;;2.90;1.42;;;;;22.40;93533.00;;;;7401270;19;20220;-74
2023/03/17 11:33:32;;;;;;;3.40;1.50;;;;;22.60;93533.00;;;;7400183;19;20129;-73
2023/03/17 11:36:26;;;;;;;3.80;1.33;;;;;22.30;93535.00;;;;7399996;19;20149;-73
2023/03/17 11:39:25;;;;;;;3.03;1.45;;;;;22.30;93531.00;;;;7401067;19;20144;-73
2023/03/17 11:42:19;;;;;;;1.60;1.15;;;;;22.00;93533.00;;;;7401225;19;20216;-74
2023/03/17 11:45:36;;;;;;;2.70;1.27;;;;;20.90;93536.00;;;;7402113;19;20204;-74
2023/03/17 11:48:30;;;;;;;1.67;1.25;;;;;21.50;93536.00;;;;7396309;19;20143;-72
2023/03/17 11:51:05;;;;;;;2.72;1.35;;;;;21.00;93539.00;;;;7400129;19;20144;-73
2023/03/17 11:53:58;;;;;;;1.75;1.40;;;;;20.50;93539.00;;;;7404280;19;20620;-74
2023/03/17 11:56:45;;;;;;;1.70;1.42;;;;;20.50;93541.00;;;;7402800;19;20850;-74
2023/03/17 11:59:30;;;;;;;3.10;1.48;;;;;19.90;93537.00;;;;7402211;19;20186;-74
2023/03/17 12:02:38;;;;;;;1.75;1.30;;;;;20.00;93535.00;;;;7399568;19;20192;-73
2023/03/17 12:05:19;;;;;;;2.03;1.10;;;;;20.50;93536.00;;;;7402904;19;20148;-73
2023/03/17 12:08:00;;;;;;;3.58;1.33;;;;;20.90;93531.00;;;;7399502;19;20137;-74
2023/03/17 12:10:49;;;;;;;2.28;1.20;;;;;20.60;93523.00;;;;7400718;19;20129;-73
2023/03/17 12:13:38;;;;;;;5.43;1.33;;;;;20.70;93527.00;;;;7402586;19;20210;-74
2023/03/17 12:16:24;;;;;;;1.30;1.20;;;;;20.90;93523.00;;;;7399757;19;20368;-74
2023/03/17 12:19:18;;;;;;;2.08;1.10;;;;;20.50;93518.00;;;;7402613;19;20133;-73
2023/03/17 12:22:10;;;;;;;2.15;1.20;;;;;20.10;93522.00;;;;7398691;19;20555;-73
2023/03/17 12:25:26;;;;;;;1.90;1.20;;;;;20.60;93516.00;;;;7400925;19;20188;-73
2023/03/17 12:28:05;;;;;;;1.73;1.27;;;;;20.40;93521.00;;;;7398109;19;20181;-73
2023/03/17 12:31:23;;;;;;;1.63;1.33;;;;;19.60;93525.00;;;;7400114;19;20167;-73
2023/03/17 12:34:14;;;;;;;1.90;1.30;;;;;19.80;93517.00;;;;7398178;19;20156;-73
2023/03/17 12:36:48;;;;;;;1.70;1.35;;;;;19.90;93516.00;;;;7398748;19;20192;-74
2023/03/17 12:39:32;;;;;;;2.83;1.15;;;;;19.90;93515.00;;;;7399505;19;20356;-74
2023/03/17 12:42:12;;;;;;;3.65;1.60;;;;;20.10;93517.00;;;;7398833;19;20145;-73
2023/03/17 12:45:28;;;;;;;1.90;1.30;;;;;20.20;93514.00;;;;7399140;19;20154;-74
2023/03/17 12:48:28;;;;;;;2.08;1.33;;;;;20.20;93515.00;;;;7395047;19;20140;-74
2023/03/17 12:51:33;;;;;;;1.98;1.30;;;;;20.20;93510.00;;;;7399973;19;20125;-74
2023/03/17 12:54:23;;;;;;;2.45;1.42;;;;;20.10;93508.00;;;;7398606;19;20145;-73
2023/03/17 12:57:13;;;;;;;1.30;1.20;;;;;20.10;93506.00;;;;7399732;19;20140;-74
2023/03/17 12:59:44;;;;;;;2.20;1.50;;;;;20.30;93508.00;;;;7398062;19;20160;-73
2023/03/17 13:02:29;;;;;;;3.85;1.50;;;;;20.40;93501.00;;;;7398249;19;20145;-73
2023/03/17 13:04:59;;;;;;;2.28;1.38;;;;;20.30;93497.00;;;;7397326;19;20144;-73
2023/03/17 13:07:50;;;;;;;3.65;1.35;;;;;20.40;93494.00;;;;7397398;19;20219;-74
2023/03/17 13:10:36;;;;;;;3.03;1.30;;;;;20.40;93497.00;;;;7399120;19;20481;-73
2023/03/17 13:13:38;;;;;;;3.03;1.50;;;;;20.00;93497.00;;;;7400428;19;20152;-73